createdAt,value
2019-05-02T00:01:21.765Z,17.98
2019-05-02T00:02:28.812Z,18.50
2019-05-02T00:03:31.642Z,19.42
2019-05-02T00:04:34.742Z,18.45
2019-05-02T00:05:37.538Z,18.98
2019-05-02T00:06:42.849Z,19.42
2019-05-02T00:07:45.344Z,18.85
2019-05-02T00:08:48.151Z,18.82
2019-05-02T00:09:50.822Z,19.65
2019-05-02T00:10:53.709Z,19.77
2019-05-02T00:11:58.818Z,19.20
2019-05-02T00:13:00.884Z,20.17
2019-05-02T00:14:03.688Z,85.53
2019-05-02T00:15:07.147Z,22.87
2019-05-02T00:16:14.178Z,20.68
2019-05-02T00:17:15.520Z,18.77
2019-05-02T00:18:18.629Z,19.35
2019-05-02T00:19:21.314Z,19.62
2019-05-02T00:20:25.879Z,19.60
2019-05-02T00:21:28.534Z,20.50
2019-05-02T00:22:31.183Z,19.10
2019-05-02T00:23:33.833Z,19.90
2019-05-02T00:24:39.339Z,20.48
2019-05-02T00:25:41.378Z,19.27
2019-05-02T00:26:44.040Z,18.95
2019-05-02T00:27:46.677Z,20.60
2019-05-02T00:28:49.928Z,20.15
2019-05-02T00:29:53.774Z,19.55
2019-05-02T00:30:57.151Z,19.27
2019-05-02T00:31:59.844Z,20.55
2019-05-02T00:33:02.619Z,19.87
2019-05-02T00:34:05.368Z,19.65
2019-05-02T00:35:08.049Z,20.08
2019-05-02T00:36:10.799Z,20.50
2019-05-02T00:37:13.446Z,20.85
2019-05-02T00:38:16.089Z,20.37
2019-05-02T00:39:18.866Z,20.00
2019-05-02T00:40:25.770Z,20.23
2019-05-02T00:41:26.009Z,20.85
2019-05-02T00:42:28.681Z,20.55
2019-05-02T00:43:34.421Z,21.10
2019-05-02T00:44:35.773Z,19.35
2019-05-02T00:45:38.669Z,19.90
2019-05-02T00:46:41.428Z,21.52
2019-05-02T00:48:02.305Z,21.68
2019-05-02T00:49:05.172Z,20.72
2019-05-02T00:50:11.172Z,20.40
2019-05-02T00:51:12.814Z,21.75
2019-05-02T00:52:15.459Z,20.57
2019-05-02T00:53:18.089Z,21.55
2019-05-02T00:54:24.360Z,20.05
2019-05-02T00:55:28.783Z,20.45
2019-05-02T00:56:30.005Z,20.00
2019-05-02T00:57:32.644Z,19.92
2019-05-02T00:58:35.296Z,20.62
2019-05-02T00:59:42.473Z,20.72
2019-05-02T01:01:04.894Z,19.85
2019-05-02T01:02:17.665Z,20.52
2019-05-02T01:03:20.477Z,20.08
2019-05-02T01:04:27.651Z,20.40
2019-05-02T01:05:33.839Z,20.02
2019-05-02T01:06:35.945Z,21.02
2019-05-02T01:07:38.618Z,19.77
2019-05-02T01:08:41.288Z,20.00
2019-05-02T01:09:46.841Z,20.08
2019-05-02T01:10:52.062Z,20.65
2019-05-02T01:11:52.869Z,21.00
2019-05-02T01:12:55.573Z,20.82
2019-05-02T01:13:58.261Z,20.92
2019-05-02T01:15:03.334Z,19.48
2019-05-02T01:16:05.522Z,20.02
2019-05-02T01:17:08.233Z,20.68
2019-05-02T01:18:10.964Z,19.75
2019-05-02T01:19:16.147Z,20.17
2019-05-02T01:20:22.292Z,20.75
2019-05-02T01:21:22.577Z,20.97
2019-05-02T01:22:25.218Z,20.45
2019-05-02T01:23:29.482Z,19.85
2019-05-02T01:24:34.230Z,20.43
2019-05-02T01:25:36.684Z,20.97
2019-05-02T01:26:43.666Z,19.12
2019-05-02T01:28:12.518Z,20.02
2019-05-02T01:29:35.567Z,19.32
2019-05-02T01:30:50.301Z,19.02
2019-05-02T01:32:10.629Z,19.60
2019-05-02T01:33:23.473Z,20.75
2019-05-02T01:34:49.007Z,19.77
2019-05-02T01:35:54.836Z,20.57
2019-05-02T01:37:06.260Z,21.27
2019-05-02T01:38:20.293Z,19.80
2019-05-02T01:39:22.949Z,19.35
2019-05-02T01:40:25.638Z,20.12
2019-05-02T01:41:29.201Z,19.87
2019-05-02T01:42:39.725Z,19.98
2019-05-02T01:43:37.647Z,19.25
2019-05-02T01:44:40.285Z,19.45
2019-05-02T01:45:46.548Z,20.17
2019-05-02T01:46:47.598Z,20.40
2019-05-02T01:47:50.302Z,19.23
2019-05-02T01:48:52.962Z,19.50
2019-05-02T01:49:57.235Z,19.35
2019-05-02T01:51:04.585Z,19.50
2019-05-02T01:52:04.595Z,20.95
2019-05-02T01:53:07.516Z,19.40
2019-05-02T01:54:11.430Z,19.37
2019-05-02T01:55:17.066Z,19.20
2019-05-02T01:56:18.615Z,20.20
2019-05-02T01:57:21.309Z,19.82
2019-05-02T01:58:23.988Z,19.32
2019-05-02T01:59:29.139Z,19.20
2019-05-02T02:00:31.101Z,17.92
2019-05-02T02:01:33.809Z,18.90
2019-05-02T02:02:36.441Z,18.75
2019-05-02T02:03:40.628Z,18.32
2019-05-02T02:04:43.575Z,19.20
2019-05-02T02:05:46.249Z,18.62
2019-05-02T02:06:48.912Z,19.75
2019-05-02T02:07:55.550Z,18.23
2019-05-02T02:08:56.044Z,19.48
2019-05-02T02:09:58.715Z,19.70
2019-05-02T02:11:01.376Z,18.85
2019-05-02T02:12:05.049Z,18.75
2019-05-02T02:13:08.714Z,18.95
2019-05-02T02:14:12.910Z,18.60
2019-05-02T02:15:15.780Z,18.05
2019-05-02T02:16:18.417Z,18.62
2019-05-02T02:17:21.173Z,19.37
2019-05-02T02:18:27.580Z,19.73
2019-05-02T02:19:39.140Z,19.12
2019-05-02T02:21:01.749Z,19.10
2019-05-02T02:22:17.219Z,19.32
2019-05-02T02:23:44.922Z,19.82
2019-05-02T02:25:08.645Z,18.77
2019-05-02T02:26:12.320Z,18.77
2019-05-02T02:27:20.037Z,17.98
2019-05-02T02:28:20.428Z,18.35
2019-05-02T02:29:23.180Z,17.82
2019-05-02T02:30:26.709Z,18.92
2019-05-02T02:31:29.456Z,17.98
2019-05-02T02:32:32.103Z,18.92
2019-05-02T02:33:40.999Z,17.92
2019-05-02T02:34:39.246Z,18.50
2019-05-02T02:35:49.748Z,18.37
2019-05-02T02:36:46.393Z,18.67
2019-05-02T02:37:52.913Z,18.15
2019-05-02T02:38:53.495Z,18.48
2019-05-02T02:39:56.479Z,18.73
2019-05-02T02:40:59.210Z,18.55
2019-05-02T02:42:01.987Z,18.57
2019-05-02T02:43:30.263Z,17.50
2019-05-02T02:44:16.084Z,17.25
2019-05-02T02:45:37.601Z,18.73
2019-05-02T02:46:42.298Z,18.60
2019-05-02T02:47:45.034Z,17.73
2019-05-02T02:48:47.704Z,17.92
2019-05-02T02:49:55.782Z,18.60
2019-05-02T02:50:54.803Z,17.32
2019-05-02T02:52:04.601Z,18.42
2019-05-02T02:53:02.002Z,18.80
2019-05-02T02:54:05.786Z,18.35
2019-05-02T02:55:08.810Z,17.12
2019-05-02T02:56:11.489Z,17.50
2019-05-02T02:57:25.704Z,17.05
2019-05-02T02:58:18.842Z,17.60
2019-05-02T02:59:26.145Z,18.98
2019-05-02T03:00:25.972Z,18.32
2019-05-02T03:01:31.090Z,17.27
2019-05-02T03:02:33.166Z,17.48
2019-05-02T03:03:35.968Z,18.35
2019-05-02T03:04:44.062Z,18.02
2019-05-02T03:05:43.054Z,18.20
2019-05-02T03:06:47.193Z,17.42
2019-05-02T03:07:50.010Z,18.00
2019-05-02T03:08:52.669Z,18.42
2019-05-02T03:09:59.397Z,18.25
2019-05-02T03:11:00.190Z,17.48
2019-05-02T03:12:20.786Z,18.40
2019-05-02T03:13:52.785Z,18.98
2019-05-02T03:14:50.323Z,17.70
2019-05-02T03:15:54.446Z,17.60
2019-05-02T03:16:57.118Z,18.10
2019-05-02T03:18:00.652Z,19.17
2019-05-02T03:19:04.269Z,17.70
2019-05-02T03:20:07.023Z,18.27
2019-05-02T03:21:13.386Z,17.10
2019-05-02T03:22:14.268Z,18.27
2019-05-02T03:23:21.824Z,18.02
2019-05-02T03:24:23.905Z,17.32
2019-05-02T03:25:49.366Z,16.27
2019-05-02T03:26:32.375Z,18.10
2019-05-02T03:27:36.961Z,18.15
2019-05-02T03:28:39.934Z,17.42
2019-05-02T03:29:44.496Z,16.30
2019-05-02T03:30:47.534Z,17.20
2019-05-02T03:32:11.710Z,16.60
2019-05-02T03:33:05.985Z,16.90
2019-05-02T03:34:01.270Z,17.87
2019-05-02T03:35:04.372Z,17.67
2019-05-02T03:36:25.855Z,18.48
2019-05-02T03:37:13.845Z,17.65
2019-05-02T03:38:16.350Z,17.82
2019-05-02T03:39:19.001Z,18.42
2019-05-02T03:40:21.782Z,16.93
2019-05-02T03:41:24.567Z,17.30
2019-05-02T03:42:27.194Z,17.27
2019-05-02T03:43:29.854Z,16.40
2019-05-02T03:44:32.580Z,17.77
2019-05-02T03:45:39.964Z,18.17
2019-05-02T03:46:40.215Z,17.45
2019-05-02T03:47:44.196Z,15.93
2019-05-02T03:48:47.516Z,16.87
2019-05-02T03:49:52.227Z,16.02
2019-05-02T03:50:54.827Z,16.65
2019-05-02T03:52:03.054Z,15.53
2019-05-02T03:53:01.952Z,16.15
2019-05-02T03:54:07.795Z,16.57
2019-05-02T03:55:09.189Z,16.25
2019-05-02T03:56:14.143Z,16.52
2019-05-02T03:57:16.383Z,15.85
2019-05-02T03:58:19.181Z,15.88
2019-05-02T03:59:22.641Z,15.58
2019-05-02T04:00:25.332Z,16.23
2019-05-02T04:01:34.695Z,15.10
2019-05-02T04:02:33.916Z,15.15
2019-05-02T04:03:41.083Z,15.68
2019-05-02T04:04:42.730Z,15.00
2019-05-02T04:05:45.614Z,15.05
2019-05-02T04:06:48.486Z,15.25
2019-05-02T04:07:51.114Z,15.98
2019-05-02T04:09:00.054Z,15.63
2019-05-02T04:09:58.940Z,14.90
2019-05-02T04:11:24.630Z,13.88
2019-05-02T04:12:28.069Z,13.93
2019-05-02T04:13:36.340Z,15.48
2019-05-02T04:14:38.647Z,14.85
2019-05-02T04:15:40.460Z,14.65
2019-05-02T04:16:48.782Z,14.63
2019-05-02T04:17:48.112Z,16.05
2019-05-02T04:18:56.105Z,14.98
2019-05-02T04:19:55.615Z,13.35
2019-05-02T04:20:58.870Z,15.23
2019-05-02T04:22:08.540Z,14.65
2019-05-02T04:23:06.986Z,16.23
2019-05-02T04:24:14.987Z,14.75
2019-05-02T04:25:14.146Z,14.23
2019-05-02T04:26:17.803Z,13.70
2019-05-02T04:27:20.863Z,14.55
2019-05-02T04:28:24.003Z,15.20
2019-05-02T04:29:31.185Z,31.93
2019-05-02T04:30:34.036Z,71.35
2019-05-02T04:31:36.705Z,27.75
2019-05-02T04:32:42.824Z,45.65
2019-05-02T04:33:43.859Z,40.05
2019-05-02T04:34:48.971Z,22.05
2019-05-02T04:35:51.074Z,14.78
2019-05-02T04:37:00.758Z,15.00
2019-05-02T04:38:01.501Z,13.50
2019-05-02T04:39:05.885Z,14.07
2019-05-02T04:40:12.188Z,13.30
2019-05-02T04:41:18.795Z,13.50
2019-05-02T04:42:22.123Z,13.93
2019-05-02T04:43:22.571Z,13.58
2019-05-02T04:44:32.229Z,13.32
2019-05-02T04:45:50.951Z,12.80
2019-05-02T04:46:34.415Z,13.48
2019-05-02T04:47:39.017Z,14.05
2019-05-02T04:48:48.306Z,13.38
2019-05-02T04:49:51.498Z,13.25
2019-05-02T04:50:51.750Z,12.80
2019-05-02T04:52:01.854Z,13.28
2019-05-02T04:52:59.370Z,12.78
2019-05-02T04:54:02.086Z,13.55
2019-05-02T04:55:14.666Z,12.37
2019-05-02T04:56:10.587Z,13.45
2019-05-02T04:57:13.607Z,13.05
2019-05-02T04:58:25.711Z,12.93
2019-05-02T04:59:22.991Z,12.75
2019-05-02T05:00:28.741Z,12.95
2019-05-02T05:01:41.949Z,13.08
2019-05-02T05:02:37.313Z,12.98
2019-05-02T05:03:40.317Z,11.43
2019-05-02T05:04:48.647Z,12.75
2019-05-02T05:05:48.235Z,13.38
2019-05-02T05:06:55.945Z,12.15
2019-05-02T05:07:55.428Z,12.98
2019-05-02T05:08:58.433Z,12.60
2019-05-02T05:10:03.265Z,12.93
2019-05-02T05:11:07.656Z,13.38
2019-05-02T05:12:10.208Z,12.65
2019-05-02T05:13:19.871Z,13.78
2019-05-02T05:14:18.000Z,13.15
2019-05-02T05:15:35.511Z,12.93
2019-05-02T05:16:25.566Z,14.28
2019-05-02T05:17:32.439Z,13.35
2019-05-02T05:18:32.722Z,13.45
2019-05-02T05:19:37.336Z,12.10
2019-05-02T05:20:40.540Z,13.30
2019-05-02T05:21:43.344Z,13.45
2019-05-02T05:22:47.780Z,13.60
2019-05-02T05:24:15.517Z,14.63
2019-05-02T05:25:23.822Z,15.13
2019-05-02T05:26:28.072Z,14.40
2019-05-02T05:27:31.664Z,13.10
2019-05-02T05:28:35.109Z,13.32
2019-05-02T05:29:38.802Z,13.85
2019-05-02T05:30:45.421Z,14.28
2019-05-02T05:31:48.153Z,13.58
2019-05-02T05:32:50.607Z,14.43
2019-05-02T05:33:53.295Z,13.30
2019-05-02T05:34:57.947Z,13.78
2019-05-02T05:36:00.436Z,12.63
2019-05-02T05:37:03.546Z,13.62
2019-05-02T05:38:07.789Z,12.80
2019-05-02T05:39:11.789Z,13.48
2019-05-02T05:40:14.604Z,12.78
2019-05-02T05:41:22.762Z,12.73
2019-05-02T05:42:23.463Z,12.58
2019-05-02T05:43:27.630Z,11.63
2019-05-02T05:44:32.597Z,12.50
2019-05-02T05:45:47.745Z,10.98
2019-05-02T05:46:42.463Z,12.00
2019-05-02T05:47:43.678Z,11.75
2019-05-02T05:48:47.642Z,11.12
2019-05-02T05:49:52.350Z,12.28
2019-05-02T05:50:58.035Z,11.10
2019-05-02T05:52:03.792Z,11.20
2019-05-02T05:53:05.237Z,12.07
2019-05-02T05:54:07.961Z,12.40
2019-05-02T05:55:12.796Z,11.78
2019-05-02T05:56:15.514Z,11.83
2019-05-02T05:57:21.064Z,11.22
2019-05-02T05:58:22.745Z,11.73
2019-05-02T05:59:28.267Z,12.30
2019-05-02T06:00:30.109Z,11.68
2019-05-02T06:01:35.783Z,11.38
2019-05-02T06:02:50.809Z,10.90
2019-05-02T06:03:44.958Z,11.30
2019-05-02T06:04:47.360Z,11.35
2019-05-02T06:05:51.233Z,11.45
2019-05-02T06:06:58.388Z,11.63
2019-05-02T06:07:58.326Z,11.85
2019-05-02T06:09:01.049Z,11.48
2019-05-02T06:10:07.985Z,11.83
2019-05-02T06:11:08.501Z,11.50
2019-05-02T06:12:11.606Z,11.10
2019-05-02T06:13:14.229Z,10.93
2019-05-02T06:14:19.937Z,11.93
2019-05-02T06:15:21.391Z,10.93
2019-05-02T06:16:24.116Z,12.13
2019-05-02T06:17:28.476Z,27.20
2019-05-02T06:18:31.355Z,47.60
2019-05-02T06:19:34.057Z,11.38
2019-05-02T06:20:37.855Z,11.33
2019-05-02T06:21:45.100Z,11.45
2019-05-02T06:22:44.968Z,11.03
2019-05-02T06:23:47.646Z,11.60
2019-05-02T06:24:50.794Z,11.53
2019-05-02T06:25:54.729Z,11.33
2019-05-02T06:26:57.414Z,11.40
2019-05-02T06:28:04.742Z,11.40
2019-05-02T06:29:13.086Z,11.08
2019-05-02T06:30:13.603Z,12.00
2019-05-02T06:31:17.181Z,11.95
2019-05-02T06:32:20.724Z,11.30
2019-05-02T06:33:25.836Z,17.85
2019-05-02T06:34:27.915Z,10.98
2019-05-02T06:35:30.628Z,11.40
2019-05-02T06:36:36.909Z,11.10
2019-05-02T06:37:40.495Z,11.50
2019-05-02T06:38:42.480Z,10.38
2019-05-02T06:39:45.138Z,11.63
2019-05-02T06:40:48.008Z,11.40
2019-05-02T06:41:52.106Z,10.80
2019-05-02T06:42:55.280Z,11.60
2019-05-02T06:43:57.955Z,11.33
2019-05-02T06:45:01.156Z,10.18
2019-05-02T06:46:15.523Z,11.50
2019-05-02T06:47:08.913Z,11.00
2019-05-02T06:48:17.118Z,11.55
2019-05-02T06:49:16.084Z,11.05
2019-05-02T06:50:18.998Z,9.63
2019-05-02T06:51:21.757Z,10.98
2019-05-02T06:52:27.187Z,10.93
2019-05-02T06:53:28.927Z,12.23
2019-05-02T06:54:31.587Z,11.33
2019-05-02T06:55:36.525Z,11.73
2019-05-02T06:56:42.963Z,11.63
2019-05-02T06:57:43.233Z,11.05
2019-05-02T06:58:45.897Z,10.40
2019-05-02T06:59:50.009Z,11.18
2019-05-02T07:00:58.061Z,11.30
2019-05-02T07:01:59.345Z,11.40
2019-05-02T07:03:05.062Z,11.73
2019-05-02T07:04:07.065Z,10.58
2019-05-02T07:05:10.007Z,11.22
2019-05-02T07:06:12.715Z,11.20
2019-05-02T07:07:15.701Z,12.05
2019-05-02T07:08:18.892Z,11.45
2019-05-02T07:09:24.644Z,11.38
2019-05-02T07:10:30.923Z,11.03
2019-05-02T07:11:33.136Z,12.30
2019-05-02T07:12:36.721Z,11.35
2019-05-02T07:13:42.187Z,11.70
2019-05-02T07:14:45.810Z,10.63
2019-05-02T07:16:30.335Z,11.63
2019-05-02T07:17:40.674Z,10.88
2019-05-02T07:18:49.654Z,10.90
2019-05-02T07:19:58.899Z,10.68
2019-05-02T07:20:59.514Z,11.53
2019-05-02T07:22:04.464Z,10.80
2019-05-02T07:23:10.462Z,10.98
2019-05-02T07:24:11.338Z,10.98
2019-05-02T07:25:15.877Z,10.95
2019-05-02T07:26:21.185Z,11.45
2019-05-02T07:27:23.045Z,11.12
2019-05-02T07:28:25.711Z,10.88
2019-05-02T07:29:28.352Z,10.88
2019-05-02T07:30:35.054Z,11.12
2019-05-02T07:31:35.463Z,11.38
2019-05-02T07:32:38.173Z,11.30
2019-05-02T07:33:40.832Z,11.33
2019-05-02T07:34:44.150Z,11.18
2019-05-02T07:35:47.978Z,12.00
2019-05-02T07:36:50.620Z,12.10
2019-05-02T07:37:53.381Z,11.60
2019-05-02T07:38:57.594Z,10.82
2019-05-02T07:40:00.506Z,12.07
2019-05-02T07:41:03.768Z,11.73
2019-05-02T07:42:07.905Z,11.15
2019-05-02T07:43:13.460Z,11.63
2019-05-02T07:44:15.308Z,11.20
2019-05-02T07:45:18.137Z,11.55
2019-05-02T07:46:22.205Z,12.10
2019-05-02T07:47:24.990Z,11.53
2019-05-02T07:48:27.770Z,12.43
2019-05-02T07:49:32.263Z,11.83
2019-05-02T07:50:34.912Z,12.82
2019-05-02T07:51:37.626Z,11.90
2019-05-02T07:52:41.167Z,12.45
2019-05-02T07:53:44.467Z,12.13
2019-05-02T07:54:48.517Z,11.88
2019-05-02T07:55:51.156Z,12.98
2019-05-02T07:56:54.666Z,11.08
2019-05-02T07:57:57.391Z,12.65
2019-05-02T07:59:00.102Z,13.00
2019-05-02T08:00:03.175Z,12.68
2019-05-02T08:01:07.962Z,12.10
2019-05-02T08:02:10.476Z,13.20
2019-05-02T08:03:13.195Z,11.28
2019-05-02T08:04:15.866Z,11.97
2019-05-02T08:05:21.794Z,11.18
2019-05-02T08:06:34.677Z,11.95
2019-05-02T08:07:34.377Z,12.28
2019-05-02T08:08:31.968Z,15.32
2019-05-02T08:09:39.111Z,11.48
2019-05-02T08:10:39.164Z,11.33
2019-05-02T08:11:41.836Z,12.35
2019-05-02T08:12:44.609Z,11.57
2019-05-02T08:13:49.458Z,11.10
2019-05-02T08:14:51.776Z,11.83
2019-05-02T08:15:54.425Z,12.53
2019-05-02T08:17:05.304Z,12.85
2019-05-02T08:18:01.548Z,11.85
2019-05-02T08:19:05.443Z,11.50
2019-05-02T08:20:13.235Z,12.47
2019-05-02T08:21:13.444Z,12.53
2019-05-02T08:22:16.096Z,12.75
2019-05-02T08:23:20.638Z,13.50
2019-05-02T08:24:23.176Z,11.97
2019-05-02T08:25:25.865Z,12.65
2019-05-02T08:26:45.046Z,12.65
2019-05-02T08:27:52.637Z,11.50
2019-05-02T08:28:59.153Z,12.20
2019-05-02T08:30:04.448Z,11.28
2019-05-02T08:31:06.408Z,11.65
2019-05-02T08:32:09.049Z,11.83
2019-05-02T08:33:11.742Z,13.05
2019-05-02T08:34:16.302Z,11.22
2019-05-02T08:35:19.010Z,10.88
2019-05-02T08:36:21.715Z,11.50
2019-05-02T08:37:24.374Z,11.05
2019-05-02T08:38:27.061Z,12.20
2019-05-02T08:39:33.450Z,11.45
2019-05-02T08:40:34.225Z,11.63
2019-05-02T08:41:36.888Z,10.60
2019-05-02T08:42:39.553Z,10.72
2019-05-02T08:43:44.892Z,10.50
2019-05-02T08:44:51.395Z,11.55
2019-05-02T08:45:51.118Z,10.98
2019-05-02T08:46:54.018Z,11.30
2019-05-02T08:48:00.185Z,12.07
2019-05-02T08:49:01.176Z,11.48
2019-05-02T08:50:04.152Z,10.90
2019-05-02T08:51:06.787Z,18.35
2019-05-02T08:52:09.461Z,10.80
2019-05-02T08:53:14.197Z,11.57
2019-05-02T08:54:16.625Z,10.98
2019-05-02T08:55:19.346Z,10.38
2019-05-02T08:56:22.907Z,11.40
2019-05-02T08:57:25.606Z,10.85
2019-05-02T08:58:28.290Z,11.30
2019-05-02T08:59:30.928Z,10.90
2019-05-02T09:00:37.465Z,11.38
2019-05-02T09:01:38.137Z,12.30
2019-05-02T09:02:42.314Z,12.18
2019-05-02T09:04:00.267Z,11.60
2019-05-02T09:04:58.233Z,11.90
2019-05-02T09:06:05.193Z,11.40
2019-05-02T09:07:00.503Z,11.43
2019-05-02T09:08:03.095Z,11.38
2019-05-02T09:09:07.328Z,13.20
2019-05-02T09:10:10.525Z,12.80
2019-05-02T09:11:15.662Z,12.00
2019-05-02T09:12:20.137Z,12.28
2019-05-02T09:13:25.950Z,10.98
2019-05-02T09:14:26.617Z,12.40
2019-05-02T09:15:29.274Z,12.18
2019-05-02T09:16:32.847Z,12.07
2019-05-02T09:17:38.744Z,11.78
2019-05-02T09:18:50.105Z,12.45
2019-05-02T09:19:44.593Z,12.43
2019-05-02T09:20:51.864Z,11.15
2019-05-02T09:21:52.584Z,11.70
2019-05-02T09:22:56.044Z,12.43
2019-05-02T09:23:58.858Z,11.80
2019-05-02T09:25:02.242Z,12.30
2019-05-02T09:26:05.392Z,11.38
2019-05-02T09:27:08.066Z,12.10
2019-05-02T09:28:12.454Z,11.65
2019-05-02T09:29:15.313Z,11.48
2019-05-02T09:30:22.838Z,12.10
2019-05-02T09:31:23.483Z,11.75
2019-05-02T09:32:26.646Z,11.08
2019-05-02T09:33:29.330Z,11.35
2019-05-02T09:34:32.032Z,11.63
2019-05-02T09:35:34.694Z,10.85
2019-05-02T09:36:38.237Z,11.03
2019-05-02T09:37:41.877Z,12.00
2019-05-02T09:38:48.825Z,11.25
2019-05-02T09:39:49.274Z,12.20
2019-05-02T09:40:55.942Z,11.25
2019-05-02T09:41:56.429Z,10.98
2019-05-02T09:43:02.104Z,11.38
2019-05-02T09:44:03.784Z,11.63
2019-05-02T09:45:12.253Z,11.65
2019-05-02T09:46:16.592Z,11.50
2019-05-02T09:47:27.496Z,11.78
2019-05-02T09:48:27.424Z,11.10
2019-05-02T09:49:32.341Z,11.08
2019-05-02T09:50:37.914Z,11.93
2019-05-02T09:51:42.359Z,11.78
2019-05-02T09:52:46.316Z,10.95
2019-05-02T09:53:48.987Z,13.18
2019-05-02T09:54:51.934Z,9.78
2019-05-02T09:55:57.699Z,9.30
2019-05-02T09:56:59.262Z,9.70
2019-05-02T09:58:02.705Z,9.15
2019-05-02T09:59:23.326Z,9.25
2019-05-02T10:00:13.519Z,9.50
2019-05-02T10:01:24.921Z,9.25
2019-05-02T10:02:27.682Z,9.25
2019-05-02T10:03:31.863Z,9.28
2019-05-02T10:04:34.825Z,9.38
2019-05-02T10:05:37.477Z,9.25
2019-05-02T10:06:42.346Z,9.38
2019-05-02T10:07:44.965Z,8.15
2019-05-02T10:08:47.767Z,11.03
2019-05-02T10:09:51.894Z,14.25
2019-05-02T10:10:54.756Z,14.40
2019-05-02T10:11:57.500Z,11.65
2019-05-02T10:13:00.301Z,13.83
2019-05-02T10:14:03.351Z,15.53
2019-05-02T10:15:08.695Z,13.10
2019-05-02T10:16:12.274Z,16.15
2019-05-02T10:17:18.134Z,13.45
2019-05-02T10:18:24.192Z,11.68
2019-05-02T10:19:26.094Z,10.70
2019-05-02T10:20:31.890Z,15.45
2019-05-02T10:21:33.445Z,7.20
2019-05-02T10:22:39.458Z,8.68
2019-05-02T10:23:42.744Z,12.98
2019-05-02T10:24:45.453Z,10.55
2019-05-02T10:25:48.089Z,12.13
2019-05-02T10:26:55.181Z,11.57
2019-05-02T10:27:55.272Z,13.30
2019-05-02T10:28:58.067Z,11.95
2019-05-02T10:30:08.382Z,10.78
2019-05-02T10:31:05.478Z,11.28
2019-05-02T10:32:13.035Z,12.90
2019-05-02T10:33:12.988Z,11.83
2019-05-02T10:34:17.636Z,10.15
2019-05-02T10:35:22.882Z,11.63
2019-05-02T10:36:25.619Z,10.78
2019-05-02T10:37:32.449Z,13.83
2019-05-02T10:38:32.870Z,11.60
2019-05-02T10:39:37.963Z,9.78
2019-05-02T10:40:42.456Z,11.93
2019-05-02T10:41:45.265Z,9.95
2019-05-02T10:42:48.008Z,8.55
2019-05-02T10:43:52.010Z,9.25
2019-05-02T10:44:55.700Z,13.20
2019-05-02T10:46:04.002Z,9.13
2019-05-02T10:47:06.760Z,8.55
2019-05-02T10:48:22.873Z,9.45
2019-05-02T10:49:25.485Z,9.45
2019-05-02T10:50:32.902Z,9.03
2019-05-02T10:51:35.722Z,8.88
2019-05-02T10:52:38.386Z,9.10
2019-05-02T10:53:42.406Z,9.23
2019-05-02T10:54:45.117Z,8.23
2019-05-02T10:55:47.840Z,8.95
2019-05-02T10:56:51.838Z,7.83
2019-05-02T10:57:54.536Z,8.15
2019-05-02T10:58:57.298Z,7.72
2019-05-02T11:00:00.017Z,7.42
2019-05-02T11:01:02.768Z,7.17
2019-05-02T11:02:23.590Z,6.33
2019-05-02T11:03:38.128Z,6.78
2019-05-02T11:04:43.199Z,6.30
2019-05-02T11:05:48.568Z,6.22
2019-05-02T11:06:51.830Z,6.30
2019-05-02T11:07:56.893Z,5.50
2019-05-02T11:08:59.018Z,5.97
2019-05-02T11:10:03.243Z,6.78
2019-05-02T11:11:06.515Z,5.50
2019-05-02T11:12:11.809Z,5.50
2019-05-02T11:13:24.095Z,6.03
2019-05-02T11:14:36.313Z,7.05
2019-05-02T11:16:12.235Z,6.03
2019-05-02T11:17:22.681Z,6.90
2019-05-02T11:18:40.304Z,6.67
2019-05-02T11:19:53.661Z,6.62
2019-05-02T11:20:59.087Z,6.33
2019-05-02T11:22:02.841Z,6.17
2019-05-02T11:23:05.527Z,5.87
2019-05-02T11:24:11.400Z,6.20
2019-05-02T11:25:12.992Z,6.10
2019-05-02T11:26:21.519Z,7.25
2019-05-02T11:27:21.988Z,6.97
2019-05-02T11:28:24.714Z,6.10
2019-05-02T11:29:27.361Z,6.60
2019-05-02T11:30:31.569Z,7.60
2019-05-02T11:31:34.533Z,6.60
2019-05-02T11:32:37.294Z,6.90
2019-05-02T11:33:41.830Z,6.53
2019-05-02T11:34:44.659Z,7.60
2019-05-02T11:35:49.509Z,7.30
2019-05-02T11:36:52.728Z,7.40
2019-05-02T11:37:55.588Z,6.55
2019-05-02T11:39:08.398Z,6.60
2019-05-02T11:40:06.158Z,6.70
2019-05-02T11:41:08.804Z,6.67
2019-05-02T11:42:12.467Z,5.93
2019-05-02T11:43:16.421Z,6.23
2019-05-02T11:44:19.085Z,8.23
2019-05-02T11:45:22.681Z,8.20
2019-05-02T11:46:25.452Z,6.70
2019-05-02T11:47:28.118Z,8.27
2019-05-02T11:48:31.988Z,7.70
2019-05-02T11:49:34.705Z,7.70
2019-05-02T11:50:37.385Z,6.53
2019-05-02T11:51:41.628Z,7.10
2019-05-02T11:52:44.716Z,7.37
2019-05-02T11:53:52.420Z,8.43
2019-05-02T11:54:54.865Z,8.00
2019-05-02T11:55:58.349Z,7.17
2019-05-02T11:57:02.389Z,7.33
2019-05-02T11:58:08.177Z,7.70
2019-05-02T11:59:14.205Z,7.97
2019-05-02T12:00:14.639Z,8.10
2019-05-02T12:01:19.744Z,8.43
2019-05-02T12:02:58.008Z,8.57
2019-05-02T12:04:00.373Z,7.90
2019-05-02T12:05:03.364Z,7.33
2019-05-02T12:06:06.695Z,6.97
2019-05-02T12:07:12.663Z,7.73
2019-05-02T12:08:14.981Z,7.90
2019-05-02T12:09:17.954Z,6.33
2019-05-02T12:10:21.619Z,7.00
2019-05-02T12:11:24.514Z,6.20
2019-05-02T12:12:31.295Z,5.53
2019-05-02T12:13:32.315Z,7.03
2019-05-02T12:14:36.447Z,6.00
2019-05-02T12:15:42.172Z,6.43
2019-05-02T12:16:46.179Z,6.37
2019-05-02T12:17:51.564Z,6.97
2019-05-02T12:19:07.918Z,6.20
2019-05-02T12:19:59.217Z,6.47
2019-05-02T12:21:02.738Z,6.93
2019-05-02T12:22:07.282Z,6.50
2019-05-02T12:23:10.056Z,7.07
2019-05-02T12:24:13.004Z,6.37
2019-05-02T12:25:15.925Z,6.00
2019-05-02T12:26:18.993Z,6.93
2019-05-02T12:27:22.111Z,6.93
2019-05-02T12:28:25.226Z,6.77
2019-05-02T12:29:28.242Z,7.93
2019-05-02T12:30:37.729Z,6.37
2019-05-02T12:31:42.501Z,5.57
2019-05-02T12:32:45.085Z,5.50
2019-05-02T12:33:47.758Z,5.77
2019-05-02T12:34:52.499Z,6.10
2019-05-02T12:35:55.209Z,5.80
2019-05-02T12:36:57.937Z,5.30
2019-05-02T12:38:02.562Z,6.50
2019-05-02T12:39:05.620Z,5.87
2019-05-02T12:40:09.373Z,6.47
2019-05-02T12:41:20.331Z,6.20
2019-05-02T12:42:16.914Z,5.20
2019-05-02T12:43:19.821Z,6.43
2019-05-02T12:44:22.540Z,5.60
2019-05-02T12:45:25.215Z,6.50
2019-05-02T12:46:28.533Z,5.90
2019-05-02T12:47:31.904Z,6.30
2019-05-02T12:48:34.681Z,5.93
2019-05-02T12:49:37.340Z,5.60
2019-05-02T12:50:41.765Z,6.30
2019-05-02T12:51:44.853Z,5.87
2019-05-02T12:52:47.617Z,5.60
2019-05-02T12:53:52.636Z,5.57
2019-05-02T12:54:55.135Z,5.30
2019-05-02T12:55:57.841Z,5.70
2019-05-02T12:57:02.032Z,5.23
2019-05-02T12:58:04.949Z,5.57
2019-05-02T12:59:07.659Z,5.53
2019-05-02T13:00:12.838Z,5.33
2019-05-02T13:01:15.674Z,5.37
2019-05-02T13:02:32.026Z,5.17
2019-05-02T13:03:44.915Z,5.17
2019-05-02T13:04:47.599Z,4.57
2019-05-02T13:05:51.934Z,5.20
2019-05-02T13:06:54.745Z,5.30
2019-05-02T13:07:57.509Z,5.10
2019-05-02T13:09:02.906Z,4.30
2019-05-02T13:10:05.936Z,4.17
2019-05-02T13:11:23.566Z,4.60
2019-05-02T13:12:28.692Z,4.33
2019-05-02T13:13:32.615Z,4.70
2019-05-02T13:14:35.414Z,4.80
2019-05-02T13:15:38.273Z,4.30
2019-05-02T13:16:42.905Z,4.53
2019-05-02T13:17:48.982Z,4.37
2019-05-02T13:18:51.927Z,4.40
2019-05-02T13:19:56.911Z,4.93
2019-05-02T13:21:02.214Z,4.40
2019-05-02T13:22:23.226Z,4.10
2019-05-02T13:23:57.307Z,4.40
2019-05-02T13:25:03.370Z,4.83
2019-05-02T13:26:18.434Z,4.53
2019-05-02T13:27:14.351Z,4.03
2019-05-02T13:28:21.331Z,4.73
2019-05-02T13:29:22.618Z,4.33
2019-05-02T13:30:43.029Z,4.53
2019-05-02T13:31:46.426Z,4.30
2019-05-02T13:32:53.763Z,4.40
2019-05-02T13:34:06.467Z,4.30
2019-05-02T13:35:34.487Z,4.87
2019-05-02T13:36:42.815Z,4.07
2019-05-02T13:37:46.260Z,4.27
2019-05-02T13:38:48.967Z,4.93
2019-05-02T13:40:03.456Z,4.77
2019-05-02T13:41:06.132Z,4.60
2019-05-02T13:42:09.587Z,4.33
2019-05-02T13:43:12.726Z,3.90
2019-05-02T13:44:18.137Z,4.20
2019-05-02T13:45:55.421Z,4.30
2019-05-02T13:46:58.134Z,4.57
2019-05-02T13:48:02.767Z,4.40
2019-05-02T13:49:05.556Z,4.70
2019-05-02T13:50:08.793Z,4.80
2019-05-02T13:51:11.987Z,4.17
2019-05-02T13:52:14.631Z,4.87
2019-05-02T13:53:17.455Z,4.27
2019-05-02T13:54:21.695Z,4.10
2019-05-02T13:55:31.571Z,4.23
2019-05-02T13:56:52.323Z,4.17
2019-05-02T13:57:54.471Z,4.70
2019-05-02T13:58:57.233Z,4.27
2019-05-02T14:00:02.297Z,4.13
2019-05-02T14:01:05.269Z,4.77